createdAt,value
2022-09-21T00:02:00.499Z,6.10
2022-09-21T00:12:04.808Z,6.07
2022-09-21T00:17:06.884Z,6.50
2022-09-21T00:22:09.007Z,6.55
2022-09-21T00:32:13.082Z,7.03
2022-09-21T00:42:23.388Z,6.95
2022-09-21T00:47:37.582Z,7.10
2022-09-21T00:52:43.763Z,7.65
2022-09-21T00:57:49.361Z,8.07
2022-09-21T01:02:51.733Z,8.95
2022-09-21T01:07:55.736Z,8.45
2022-09-21T01:13:50.221Z,7.72
2022-09-21T01:19:18.244Z,8.30
2022-09-21T01:24:51.043Z,8.43
2022-09-21T01:30:02.374Z,7.97
2022-09-21T01:40:30.907Z,7.53
2022-09-21T01:45:44.498Z,8.57
2022-09-21T01:50:52.762Z,9.63
2022-09-21T01:56:41.115Z,8.38
2022-09-21T02:01:52.392Z,7.88
2022-09-21T02:06:55.464Z,9.00
2022-09-21T02:11:58.302Z,8.38
2022-09-21T02:17:15.538Z,8.43
2022-09-21T02:22:38.087Z,10.02
2022-09-21T02:27:56.234Z,8.88
2022-09-21T02:33:21.087Z,8.88
2022-09-21T02:38:33.650Z,9.88
2022-09-21T02:43:51.869Z,9.25
2022-09-21T02:49:10.906Z,9.77
2022-09-21T02:54:16.783Z,9.23
2022-09-21T02:59:19.000Z,8.68
2022-09-21T03:04:22.011Z,9.82
2022-09-21T03:09:24.525Z,9.55
2022-09-21T03:14:26.572Z,8.82
2022-09-21T03:24:47.030Z,8.30
2022-09-21T03:29:49.837Z,9.10
2022-09-21T03:34:51.983Z,8.77
2022-09-21T03:44:56.063Z,8.52
2022-09-21T03:55:00.010Z,8.48
2022-09-21T04:05:11.131Z,8.65
2022-09-21T04:10:17.057Z,9.05
2022-09-21T04:15:19.730Z,8.27
2022-09-21T04:20:22.254Z,9.48
2022-09-21T04:25:24.265Z,9.73
2022-09-21T04:35:28.278Z,9.02
2022-09-21T04:40:31.248Z,16.85
2022-09-21T04:45:34.617Z,8.65
2022-09-21T04:50:38.228Z,10.38
2022-09-21T04:55:45.452Z,10.40
2022-09-21T05:00:52.818Z,10.45
2022-09-21T05:05:56.917Z,10.68
2022-09-21T05:10:59.531Z,10.63
2022-09-21T05:16:02.005Z,10.23
2022-09-21T05:21:06.255Z,8.65
2022-09-21T05:26:08.371Z,10.30
2022-09-21T05:31:20.388Z,9.75
2022-09-21T05:41:31.061Z,8.90
2022-09-21T05:46:38.906Z,9.50
2022-09-21T05:51:46.977Z,8.60
2022-09-21T05:56:51.971Z,8.32
2022-09-21T06:02:14.694Z,8.80
2022-09-21T06:07:16.773Z,7.28
2022-09-21T06:12:18.944Z,7.68
2022-09-21T06:17:21.042Z,7.57
2022-09-21T06:22:23.091Z,7.82
2022-09-21T06:27:25.313Z,7.60
2022-09-21T06:32:27.371Z,6.45
2022-09-21T06:37:29.411Z,6.20
2022-09-21T06:42:31.436Z,5.00
2022-09-21T06:47:33.458Z,4.95
2022-09-21T06:52:35.554Z,4.20
2022-09-21T06:57:40.288Z,4.30
2022-09-21T07:02:45.763Z,4.63
2022-09-21T07:07:53.245Z,4.45
2022-09-21T07:12:56.108Z,4.43
2022-09-21T07:18:06.003Z,4.05
2022-09-21T07:23:14.268Z,4.00
2022-09-21T07:28:16.800Z,4.30
2022-09-21T07:33:18.885Z,4.28
2022-09-21T07:38:20.951Z,3.92
2022-09-21T07:43:23.020Z,4.40
2022-09-21T07:48:25.713Z,4.85
2022-09-21T07:53:27.760Z,4.60
2022-09-21T07:58:48.330Z,4.18
2022-09-21T08:03:52.080Z,5.07
2022-09-21T08:08:57.677Z,4.63
2022-09-21T08:14:03.528Z,4.78
2022-09-21T08:19:05.755Z,5.32
2022-09-21T08:24:07.807Z,5.50
2022-09-21T08:29:09.862Z,5.47
2022-09-21T08:34:12.310Z,7.22
2022-09-21T08:39:14.400Z,5.05
2022-09-21T08:44:45.486Z,4.85
2022-09-21T08:49:59.854Z,4.40
2022-09-21T08:55:06.312Z,4.25
2022-09-21T09:00:14.926Z,4.85
2022-09-21T09:05:54.110Z,4.30
2022-09-21T09:11:14.843Z,4.13
2022-09-21T09:16:45.213Z,3.30
2022-09-21T09:21:47.447Z,2.45
2022-09-21T09:26:52.018Z,2.83
2022-09-21T09:31:55.563Z,2.80
2022-09-21T09:37:11.286Z,2.45
2022-09-21T09:42:20.194Z,4.13
2022-09-21T09:47:40.959Z,3.55
2022-09-21T09:52:44.285Z,3.00
2022-09-21T09:57:47.672Z,2.10
2022-09-21T10:02:58.677Z,1.90
2022-09-21T10:08:01.111Z,1.60
2022-09-21T10:13:22.097Z,2.08
2022-09-21T10:18:41.052Z,0.90
2022-09-21T10:23:51.729Z,1.00
2022-09-21T10:29:02.399Z,1.05
2022-09-21T10:34:04.567Z,1.08
2022-09-21T10:39:23.558Z,0.80
2022-09-21T10:44:36.390Z,1.05
2022-09-21T10:49:46.270Z,0.80
2022-09-21T10:54:52.341Z,1.45
2022-09-21T10:59:54.532Z,1.42
2022-09-21T11:05:16.370Z,1.10
2022-09-21T11:15:45.910Z,1.20
2022-09-21T11:20:55.109Z,1.15
2022-09-21T11:26:26.189Z,1.15
2022-09-21T11:31:47.435Z,1.30
2022-09-21T11:37:22.430Z,1.30
2022-09-21T11:42:30.177Z,1.48
2022-09-21T11:48:03.927Z,1.40
2022-09-21T11:53:19.644Z,1.52
2022-09-21T11:58:52.598Z,1.45
2022-09-21T12:04:13.538Z,1.73
2022-09-21T12:09:33.920Z,1.63
2022-09-21T12:15:09.496Z,2.20
2022-09-21T12:20:29.690Z,2.25
2022-09-21T12:25:41.431Z,4.40
2022-09-21T12:30:48.025Z,1.38
2022-09-21T12:35:59.241Z,1.25
2022-09-21T12:41:22.146Z,1.50
2022-09-21T12:46:30.163Z,2.72
2022-09-21T12:51:37.131Z,1.92
2022-09-21T12:56:48.261Z,1.60
2022-09-21T13:01:57.348Z,1.73
2022-09-21T13:07:24.191Z,1.48
2022-09-21T13:12:34.608Z,1.30
2022-09-21T13:17:36.787Z,1.60
2022-09-21T13:22:39.979Z,4.72
2022-09-21T13:28:01.599Z,1.80
2022-09-21T13:33:25.347Z,2.10
2022-09-21T13:38:34.316Z,1.63
2022-09-21T13:43:58.596Z,1.50
2022-09-21T13:49:12.592Z,1.55
2022-09-21T13:54:15.048Z,1.63
2022-09-21T13:59:23.290Z,1.92
2022-09-21T14:04:37.162Z,1.13
2022-09-21T14:09:56.149Z,1.38
2022-09-21T14:15:21.564Z,1.40
2022-09-21T14:20:30.397Z,1.63
2022-09-21T14:25:54.912Z,2.00
2022-09-21T14:31:03.074Z,1.83
2022-09-21T14:36:09.016Z,2.45
2022-09-21T14:41:19.865Z,2.60
2022-09-21T14:46:40.694Z,14.25
2022-09-21T14:52:04.286Z,2.42
2022-09-21T14:57:20.824Z,1.97
2022-09-21T15:02:35.807Z,2.50
2022-09-21T15:08:00.694Z,1.60
2022-09-21T15:13:23.454Z,1.90
2022-09-21T15:18:25.912Z,2.22
2022-09-21T15:23:39.380Z,2.33
2022-09-21T15:29:08.836Z,2.58
2022-09-21T15:34:15.214Z,2.70
2022-09-21T15:39:29.345Z,2.72
2022-09-21T15:44:37.175Z,2.75
2022-09-21T15:49:39.857Z,3.00
2022-09-21T15:54:49.172Z,10.80
2022-09-21T15:59:52.204Z,3.33
2022-09-21T16:04:54.689Z,3.90
2022-09-21T16:09:57.118Z,4.72
2022-09-21T16:15:09.129Z,3.33
2022-09-21T16:25:50.867Z,3.28
2022-09-21T16:30:55.196Z,4.20
2022-09-21T16:35:58.955Z,4.38
2022-09-21T16:41:02.565Z,3.35
2022-09-21T16:46:08.329Z,3.72
2022-09-21T16:51:25.065Z,3.35
2022-09-21T16:56:27.223Z,3.47
2022-09-21T17:01:30.421Z,4.45
2022-09-21T17:06:32.836Z,2.80
2022-09-21T17:11:35.315Z,21.10
2022-09-21T17:16:37.948Z,5.75
2022-09-21T17:21:40.440Z,2.50
2022-09-21T17:26:44.727Z,3.30
2022-09-21T17:31:51.208Z,2.78
2022-09-21T17:36:55.023Z,2.70
2022-09-21T17:42:02.895Z,1.52
2022-09-21T17:47:20.717Z,1.08
2022-09-21T17:52:42.077Z,1.75
2022-09-21T17:57:56.728Z,1.87
2022-09-21T18:02:59.353Z,1.67
2022-09-21T18:08:02.361Z,2.10
2022-09-21T18:13:19.636Z,5.10
2022-09-21T18:18:37.979Z,0.80
2022-09-21T18:24:30.028Z,1.10
2022-09-21T18:29:42.324Z,1.52
2022-09-21T18:34:47.381Z,1.63
2022-09-21T18:40:02.772Z,1.80
2022-09-21T18:45:12.258Z,2.03
2022-09-21T18:50:31.941Z,4.30
2022-09-21T18:55:34.673Z,3.70
2022-09-21T19:00:37.235Z,2.75
2022-09-21T19:05:49.946Z,3.63
2022-09-21T19:11:32.301Z,4.30
2022-09-21T19:16:53.418Z,3.10
2022-09-21T19:22:14.534Z,2.85
2022-09-21T19:27:52.009Z,3.28
2022-09-21T19:33:00.121Z,2.90
2022-09-21T19:38:04.035Z,2.97
2022-09-21T19:43:28.473Z,3.38
2022-09-21T19:48:42.431Z,5.15
2022-09-21T19:54:03.249Z,4.03
2022-09-21T19:59:23.790Z,3.03
2022-09-21T20:04:46.058Z,3.30
2022-09-21T20:15:15.913Z,3.60
2022-09-21T20:20:26.780Z,3.65
2022-09-21T20:25:44.476Z,3.72
2022-09-21T20:30:47.202Z,3.25
2022-09-21T20:35:50.725Z,3.58
2022-09-21T20:40:54.117Z,3.00
2022-09-21T20:45:58.532Z,3.25
2022-09-21T20:51:02.162Z,6.22
2022-09-21T20:56:04.325Z,3.42
2022-09-21T21:06:09.524Z,3.25
2022-09-21T21:11:11.936Z,3.67
2022-09-21T21:16:14.010Z,3.15
2022-09-21T21:26:18.120Z,4.10
2022-09-21T21:31:21.582Z,3.10
2022-09-21T21:36:23.773Z,3.50
2022-09-21T21:46:27.956Z,2.90
2022-09-21T21:51:30.507Z,3.65
2022-09-21T21:56:32.526Z,3.38
2022-09-21T22:06:38.960Z,3.45
2022-09-21T22:11:41.034Z,3.55
2022-09-21T22:21:51.657Z,3.17
2022-09-21T22:26:55.939Z,3.38
2022-09-21T22:37:00.731Z,3.00
2022-09-21T22:42:03.715Z,3.13
2022-09-21T22:47:05.887Z,3.33
2022-09-21T22:52:07.968Z,3.20
2022-09-21T23:02:12.057Z,2.50
2022-09-21T23:07:16.844Z,2.53
2022-09-21T23:12:19.051Z,3.17
2022-09-21T23:22:23.166Z,2.30
2022-09-21T23:27:25.525Z,3.00
2022-09-21T23:32:27.927Z,2.80
2022-09-21T23:37:30.142Z,3.10
2022-09-21T23:42:32.229Z,3.40
2022-09-21T23:52:36.439Z,3.25
2022-09-21T23:57:38.548Z,3.17
